ěÝzenÝ letovÚho provozu ╚eskÚ republiky
Letiste: LKTB Aktualizace: 24.09.2023 03:15:39  UTC
 METAR LKTB 24.09. 03:00 ...
METAR LKTB 240300Z 34013KT CAVOK 13/08 Q1021 NOSIG=
 TAF LKTB 23.09. 23:00 ...
TAF LKTB 232300Z 2400/2500 32007KT CAVOK      BECMG 2402/2404 36009KT      TEMPO 2410/2500 03010G20KT 9999 BKN035=